createdAt,value
2022-09-16T00:00:01.024Z,2.13
2022-09-16T00:02:33.405Z,2.23
2022-09-16T00:05:08.600Z,2.20
2022-09-16T00:07:41.104Z,1.97
2022-09-16T00:10:13.444Z,2.20
2022-09-16T00:12:45.578Z,1.63
2022-09-16T00:15:18.311Z,2.57
2022-09-16T00:17:50.620Z,1.47
2022-09-16T00:20:22.460Z,1.97
2022-09-16T00:22:54.892Z,1.93
2022-09-16T00:25:27.200Z,1.97
2022-09-16T00:27:59.163Z,2.20
2022-09-16T00:30:31.141Z,2.00
2022-09-16T00:33:05.580Z,2.20
2022-09-16T00:35:37.439Z,1.97
2022-09-16T00:38:09.667Z,1.83
2022-09-16T00:40:46.651Z,1.90
2022-09-16T00:43:19.989Z,2.03
2022-09-16T00:45:57.927Z,2.73
2022-09-16T00:48:33.557Z,2.07
2022-09-16T00:51:07.900Z,2.40
2022-09-16T00:53:43.329Z,2.33
2022-09-16T00:56:16.519Z,2.67
2022-09-16T00:58:51.010Z,2.43
2022-09-16T01:01:23.125Z,3.07
2022-09-16T01:04:00.864Z,2.40
2022-09-16T01:06:33.393Z,3.03
2022-09-16T01:09:06.095Z,2.87
2022-09-16T01:11:37.607Z,2.83
2022-09-16T01:14:26.815Z,2.87
2022-09-16T01:17:02.717Z,3.07
2022-09-16T01:20:00.223Z,2.43
2022-09-16T01:22:43.709Z,2.20
2022-09-16T01:25:25.072Z,2.80
2022-09-16T01:28:31.455Z,2.87
2022-09-16T01:31:10.287Z,2.97
2022-09-16T01:33:50.441Z,3.27
2022-09-16T01:36:32.792Z,2.60
2022-09-16T01:39:13.985Z,2.90
2022-09-16T01:41:56.218Z,2.57
2022-09-16T01:44:31.783Z,2.90
2022-09-16T01:47:07.502Z,1.90
2022-09-16T01:49:44.387Z,2.70
2022-09-16T01:52:23.748Z,2.80
2022-09-16T01:55:00.778Z,2.60
2022-09-16T01:57:33.779Z,2.10
2022-09-16T02:00:06.644Z,2.90
2022-09-16T02:02:42.306Z,3.67
2022-09-16T02:05:16.907Z,3.20
2022-09-16T02:07:51.604Z,2.67
2022-09-16T02:10:24.679Z,2.10
2022-09-16T02:13:01.112Z,2.00
2022-09-16T02:15:34.988Z,2.77
2022-09-16T02:18:12.008Z,1.70
2022-09-16T02:20:47.244Z,1.80
2022-09-16T02:23:22.926Z,2.50
2022-09-16T02:25:55.818Z,3.00
2022-09-16T02:28:27.515Z,2.50
2022-09-16T02:31:00.321Z,1.67
2022-09-16T02:33:34.765Z,2.30
2022-09-16T02:36:06.961Z,1.80
2022-09-16T02:38:45.752Z,2.10
2022-09-16T02:41:17.593Z,2.30
2022-09-16T02:43:47.993Z,1.80
2022-09-16T02:46:24.393Z,2.03
2022-09-16T02:49:00.911Z,2.30
2022-09-16T02:51:37.885Z,2.47
2022-09-16T02:54:13.246Z,1.90
2022-09-16T02:56:44.694Z,1.53
2022-09-16T02:59:17.977Z,1.80
2022-09-16T03:01:49.906Z,2.10
2022-09-16T03:04:23.196Z,2.20
2022-09-16T03:06:55.268Z,2.00
2022-09-16T03:09:29.822Z,1.97
2022-09-16T03:12:14.175Z,1.60
2022-09-16T03:15:03.721Z,2.43
2022-09-16T03:17:46.828Z,2.17
2022-09-16T03:20:24.367Z,1.60
2022-09-16T03:23:01.925Z,2.60
2022-09-16T03:25:41.562Z,1.70
2022-09-16T03:28:17.105Z,1.67
2022-09-16T03:30:55.181Z,1.70
2022-09-16T03:33:30.851Z,1.50
2022-09-16T03:36:05.298Z,1.90
2022-09-16T03:38:36.641Z,2.10
2022-09-16T03:41:09.605Z,2.80
2022-09-16T03:43:41.346Z,1.80
2022-09-16T03:46:13.424Z,1.93
2022-09-16T03:48:43.778Z,1.83
2022-09-16T03:51:17.831Z,2.40
2022-09-16T03:53:47.956Z,2.30
2022-09-16T03:56:19.117Z,2.03
2022-09-16T03:58:50.223Z,1.90
2022-09-16T04:01:20.769Z,2.17
2022-09-16T04:03:52.876Z,1.60
2022-09-16T04:06:25.874Z,1.73
2022-09-16T04:08:58.819Z,1.67
2022-09-16T04:11:32.289Z,1.80
2022-09-16T04:14:05.340Z,2.10
2022-09-16T04:16:34.795Z,2.03
2022-09-16T04:19:07.775Z,1.70
2022-09-16T04:21:40.039Z,2.83
2022-09-16T04:24:13.331Z,1.67
2022-09-16T04:26:45.141Z,1.47
2022-09-16T04:29:17.351Z,1.93
2022-09-16T04:31:47.983Z,1.87
2022-09-16T04:34:19.069Z,1.70
2022-09-16T04:36:51.158Z,1.70
2022-09-16T04:39:22.243Z,2.10
2022-09-16T04:41:53.341Z,3.47
2022-09-16T04:44:24.284Z,3.13
2022-09-16T04:46:56.203Z,3.40
2022-09-16T04:49:26.341Z,3.23
2022-09-16T04:51:58.705Z,2.97
2022-09-16T04:54:29.317Z,2.47
2022-09-16T04:57:01.693Z,2.03
2022-09-16T04:59:31.357Z,2.57
2022-09-16T05:02:02.320Z,2.30
2022-09-16T05:04:33.159Z,2.13
2022-09-16T05:07:06.492Z,2.10
2022-09-16T05:09:37.640Z,2.03
2022-09-16T05:12:09.947Z,2.87
2022-09-16T05:14:40.849Z,2.20
2022-09-16T05:17:23.002Z,2.03
2022-09-16T05:20:05.183Z,1.80
2022-09-16T05:22:40.159Z,2.30
2022-09-16T05:25:12.137Z,1.50
2022-09-16T05:27:43.487Z,1.90
2022-09-16T05:30:17.425Z,2.07
2022-09-16T05:32:49.897Z,2.00
2022-09-16T05:35:21.779Z,1.90
2022-09-16T05:37:53.410Z,1.87
2022-09-16T05:40:27.964Z,1.73
2022-09-16T05:43:00.749Z,1.90
2022-09-16T05:45:32.981Z,1.43
2022-09-16T05:48:05.143Z,1.17
2022-09-16T05:50:37.256Z,1.57
2022-09-16T05:53:10.775Z,1.60
2022-09-16T05:55:42.534Z,1.97
2022-09-16T05:58:14.788Z,1.77
2022-09-16T06:00:46.427Z,1.30
2022-09-16T06:03:18.819Z,1.57
2022-09-16T06:05:51.062Z,1.60
2022-09-16T06:08:24.308Z,1.60
2022-09-16T06:10:56.565Z,1.30
2022-09-16T06:13:29.266Z,1.17
2022-09-16T06:16:01.486Z,1.47
2022-09-16T06:18:34.863Z,1.20
2022-09-16T06:21:10.409Z,1.30
2022-09-16T06:23:43.664Z,1.73
2022-09-16T06:26:17.388Z,1.53
2022-09-16T06:28:49.838Z,1.30
2022-09-16T06:31:23.949Z,1.77
2022-09-16T06:33:56.605Z,1.23
2022-09-16T06:36:30.400Z,1.53
2022-09-16T06:39:04.360Z,1.57
2022-09-16T06:41:37.121Z,1.50
2022-09-16T06:44:09.975Z,1.53
2022-09-16T06:46:41.916Z,1.27
2022-09-16T06:49:13.563Z,1.60
2022-09-16T06:51:45.602Z,1.30
2022-09-16T06:54:19.124Z,1.20
2022-09-16T06:56:51.426Z,1.50
2022-09-16T06:59:23.504Z,1.57
2022-09-16T07:01:55.764Z,1.60
2022-09-16T07:04:28.039Z,1.50
2022-09-16T07:07:15.553Z,1.42
2022-09-16T07:09:49.043Z,1.67
2022-09-16T07:12:20.668Z,1.67
2022-09-16T07:14:53.170Z,1.30
2022-09-16T07:17:27.442Z,1.45
2022-09-16T07:19:59.422Z,1.55
2022-09-16T07:22:32.772Z,1.40
2022-09-16T07:25:03.165Z,1.83
2022-09-16T07:27:34.782Z,1.58
2022-09-16T07:30:08.936Z,1.30
2022-09-16T07:32:40.773Z,1.80
2022-09-16T07:35:13.014Z,1.67
2022-09-16T07:37:45.508Z,1.60
2022-09-16T07:40:20.240Z,1.80
2022-09-16T07:42:52.419Z,1.23
2022-09-16T07:45:24.097Z,1.43
2022-09-16T07:47:55.957Z,1.93
2022-09-16T07:50:27.460Z,1.80
2022-09-16T07:52:59.339Z,1.57
2022-09-16T07:55:33.237Z,1.70
2022-09-16T07:58:05.723Z,1.93
2022-09-16T08:00:35.208Z,1.70
2022-09-16T08:03:06.330Z,1.50
2022-09-16T08:05:37.828Z,2.00
2022-09-16T08:08:07.323Z,5.70
2022-09-16T08:10:38.953Z,4.67
2022-09-16T08:13:11.669Z,5.50
2022-09-16T08:15:40.514Z,1.90
2022-09-16T08:18:10.685Z,1.90
2022-09-16T08:20:40.601Z,2.20
2022-09-16T08:23:13.602Z,1.60
2022-09-16T08:25:47.489Z,1.60
2022-09-16T08:28:19.502Z,1.70
2022-09-16T08:30:53.363Z,9.87
2022-09-16T08:33:26.091Z,1.83
2022-09-16T08:36:02.541Z,2.60
2022-09-16T08:38:35.203Z,1.70
2022-09-16T08:41:22.521Z,1.30
2022-09-16T08:44:02.388Z,1.90
2022-09-16T08:46:37.690Z,1.77
2022-09-16T08:49:18.612Z,1.50
2022-09-16T08:51:51.437Z,1.90
2022-09-16T08:54:28.499Z,1.90
2022-09-16T08:57:04.487Z,1.20
2022-09-16T08:59:48.674Z,1.50
2022-09-16T09:02:37.034Z,1.60
2022-09-16T09:05:17.137Z,1.87
2022-09-16T09:08:03.555Z,2.03
2022-09-16T09:10:44.590Z,2.10
2022-09-16T09:13:31.536Z,1.93
2022-09-16T09:16:08.914Z,1.87
2022-09-16T09:18:49.522Z,1.80
2022-09-16T09:21:27.999Z,2.07
2022-09-16T09:24:14.932Z,1.40
2022-09-16T09:26:50.377Z,1.87
2022-09-16T09:29:39.469Z,1.77
2022-09-16T09:32:21.091Z,1.30
2022-09-16T09:35:08.385Z,1.57
2022-09-16T09:37:51.207Z,3.13
2022-09-16T09:40:28.071Z,1.90
2022-09-16T09:43:07.781Z,3.17
2022-09-16T09:45:44.234Z,2.20
2022-09-16T09:48:22.103Z,1.50
2022-09-16T09:50:55.314Z,1.93
2022-09-16T09:53:29.077Z,1.80
2022-09-16T09:56:06.462Z,1.93
2022-09-16T09:58:44.655Z,1.50
2022-09-16T10:01:21.737Z,2.27
2022-09-16T10:03:53.942Z,2.10
2022-09-16T10:06:27.232Z,2.37
2022-09-16T10:09:00.836Z,2.83
2022-09-16T10:11:31.993Z,1.83
2022-09-16T10:14:06.007Z,1.40
2022-09-16T10:16:40.217Z,1.60
2022-09-16T10:19:19.968Z,1.40
2022-09-16T10:21:54.261Z,1.73
2022-09-16T10:24:32.793Z,1.20
2022-09-16T10:27:21.122Z,1.60
2022-09-16T10:30:06.691Z,1.40
2022-09-16T10:32:47.367Z,1.83
2022-09-16T10:35:22.219Z,1.60
2022-09-16T10:37:57.679Z,1.73
2022-09-16T10:40:30.318Z,1.90
2022-09-16T10:43:04.497Z,1.83
2022-09-16T10:45:37.905Z,1.37
2022-09-16T10:48:15.628Z,1.80
2022-09-16T10:50:55.784Z,1.57
2022-09-16T10:53:39.133Z,1.73
2022-09-16T10:56:19.084Z,1.77
2022-09-16T10:59:03.469Z,1.60
2022-09-16T11:01:45.201Z,1.63
2022-09-16T11:04:56.902Z,1.77
2022-09-16T11:07:38.578Z,1.10
2022-09-16T11:10:21.745Z,1.40
2022-09-16T11:13:20.329Z,1.57
2022-09-16T11:16:00.981Z,1.43
2022-09-16T11:18:50.767Z,1.47
2022-09-16T11:21:46.974Z,3.93
2022-09-16T11:24:45.167Z,2.30
2022-09-16T11:27:26.258Z,1.33
2022-09-16T11:30:06.245Z,1.80
2022-09-16T11:32:50.258Z,1.80
2022-09-16T11:35:38.534Z,1.47
2022-09-16T11:38:18.661Z,1.23
2022-09-16T11:40:55.381Z,1.47
2022-09-16T11:43:48.813Z,1.90
2022-09-16T11:46:24.784Z,1.30
2022-09-16T11:49:06.564Z,1.10
2022-09-16T11:51:58.764Z,1.30
2022-09-16T11:54:47.625Z,1.20
2022-09-16T11:57:22.304Z,1.57
2022-09-16T11:59:59.006Z,1.77
2022-09-16T12:02:36.624Z,1.30
2022-09-16T12:05:15.317Z,1.20
2022-09-16T12:07:53.344Z,1.47
2022-09-16T12:10:29.270Z,1.70
2022-09-16T12:13:06.238Z,1.10
2022-09-16T12:15:41.987Z,1.97
2022-09-16T12:18:15.003Z,1.50
2022-09-16T12:20:50.897Z,1.40
2022-09-16T12:23:25.549Z,2.60
2022-09-16T12:26:08.351Z,1.93
2022-09-16T12:28:46.342Z,1.83
2022-09-16T12:31:24.057Z,2.10
2022-09-16T12:33:59.123Z,1.60
2022-09-16T12:36:33.445Z,1.50
2022-09-16T12:39:05.965Z,2.00
2022-09-16T12:42:03.609Z,1.80
2022-09-16T12:45:06.242Z,2.17
2022-09-16T12:48:04.612Z,2.03
2022-09-16T12:50:49.831Z,1.50
2022-09-16T12:53:58.251Z,1.77
2022-09-16T12:56:55.182Z,1.80
2022-09-16T12:59:47.178Z,2.37
2022-09-16T13:02:20.403Z,1.93
2022-09-16T13:04:54.242Z,1.60
2022-09-16T13:07:42.585Z,1.97
2022-09-16T13:10:55.775Z,1.57
2022-09-16T13:13:34.270Z,1.77
2022-09-16T13:16:08.281Z,1.70
2022-09-16T13:18:43.837Z,2.00
2022-09-16T13:21:22.417Z,1.93
2022-09-16T13:23:58.500Z,2.13
2022-09-16T13:26:41.178Z,2.00
2022-09-16T13:29:39.688Z,1.70
2022-09-16T13:32:27.355Z,1.80
2022-09-16T13:35:04.382Z,1.80
2022-09-16T13:37:32.891Z,1.80
2022-09-16T13:40:17.441Z,1.40
2022-09-16T13:42:46.886Z,1.80
2022-09-16T13:45:37.711Z,1.50
2022-09-16T13:48:12.026Z,1.40
2022-09-16T13:50:43.217Z,1.47
2022-09-16T13:53:13.405Z,1.27
2022-09-16T13:55:43.346Z,1.90
2022-09-16T13:58:19.958Z,1.50
2022-09-16T14:01:00.427Z,1.90
2022-09-16T14:03:47.576Z,1.43
2022-09-16T14:06:51.498Z,1.33
2022-09-16T14:09:35.979Z,1.30
2022-09-16T14:12:10.593Z,1.43
2022-09-16T14:14:48.051Z,1.07
2022-09-16T14:17:22.008Z,1.23
2022-09-16T14:19:53.108Z,1.30
2022-09-16T14:22:23.294Z,1.07
2022-09-16T14:25:00.726Z,1.50
2022-09-16T14:27:39.622Z,0.87
2022-09-16T14:30:17.345Z,0.83
2022-09-16T14:32:48.495Z,1.00
2022-09-16T14:35:20.293Z,1.30
2022-09-16T14:37:52.828Z,1.40
2022-09-16T14:40:24.141Z,1.50
2022-09-16T14:42:55.259Z,1.30
2022-09-16T14:45:23.925Z,0.87
2022-09-16T14:47:55.693Z,1.10
2022-09-16T14:50:26.562Z,1.00
2022-09-16T14:52:57.487Z,0.60
2022-09-16T14:55:30.217Z,0.70
2022-09-16T14:57:59.499Z,1.30
2022-09-16T15:00:32.333Z,0.67
2022-09-16T15:03:05.634Z,1.43
2022-09-16T15:05:36.718Z,0.60
2022-09-16T15:08:14.057Z,0.70
2022-09-16T15:10:52.541Z,1.20
2022-09-16T15:13:24.277Z,0.73
2022-09-16T15:15:56.264Z,0.90
2022-09-16T15:18:29.890Z,0.67
2022-09-16T15:21:05.385Z,0.60
2022-09-16T15:23:35.049Z,0.90
2022-09-16T15:26:15.091Z,0.90
2022-09-16T15:28:59.043Z,0.80
2022-09-16T15:31:34.964Z,0.60
2022-09-16T15:34:21.197Z,0.70
2022-09-16T15:36:53.453Z,0.80
2022-09-16T15:39:29.505Z,1.00
2022-09-16T15:42:12.771Z,1.07
2022-09-16T15:44:47.819Z,0.83
2022-09-16T15:47:20.523Z,0.80
2022-09-16T15:49:54.409Z,1.03
2022-09-16T15:52:23.735Z,1.20
2022-09-16T15:54:55.230Z,1.17
2022-09-16T15:57:31.246Z,1.00
2022-09-16T16:00:10.795Z,2.07
2022-09-16T16:02:45.380Z,1.50
2022-09-16T16:05:17.783Z,0.97
2022-09-16T16:07:48.755Z,1.03
2022-09-16T16:10:20.569Z,2.20
2022-09-16T16:12:50.295Z,1.20
2022-09-16T16:15:21.706Z,1.37
2022-09-16T16:17:50.498Z,1.00
2022-09-16T16:20:20.572Z,1.17
2022-09-16T16:22:49.615Z,1.10
2022-09-16T16:25:18.909Z,1.00
2022-09-16T16:27:47.726Z,1.10
2022-09-16T16:30:16.679Z,1.00
2022-09-16T16:32:45.277Z,1.50
2022-09-16T16:35:14.308Z,1.37
2022-09-16T16:37:47.745Z,1.23
2022-09-16T16:40:17.741Z,0.93
2022-09-16T16:42:46.799Z,0.90
2022-09-16T16:45:15.504Z,1.00
2022-09-16T16:47:46.349Z,1.00
2022-09-16T16:50:15.148Z,1.00
2022-09-16T16:52:45.983Z,0.80
2022-09-16T16:55:14.948Z,0.67
2022-09-16T16:57:44.895Z,0.50
2022-09-16T17:00:15.264Z,0.73
2022-09-16T17:02:46.433Z,0.97
2022-09-16T17:05:15.650Z,0.83
2022-09-16T17:07:46.454Z,0.60
2022-09-16T17:10:15.518Z,0.60
2022-09-16T17:12:44.759Z,0.43
2022-09-16T17:15:13.561Z,0.97
2022-09-16T17:17:42.391Z,0.83
2022-09-16T17:20:11.499Z,0.67
2022-09-16T17:22:41.433Z,0.80
2022-09-16T17:25:12.492Z,0.70
2022-09-16T17:27:41.207Z,0.67
2022-09-16T17:30:10.827Z,0.67
2022-09-16T17:32:39.794Z,0.43
2022-09-16T17:35:09.781Z,0.60
2022-09-16T17:37:39.444Z,0.90
2022-09-16T17:40:09.006Z,0.67
2022-09-16T17:42:40.051Z,0.50
2022-09-16T17:45:09.766Z,0.67
2022-09-16T17:47:38.839Z,0.80
2022-09-16T17:50:08.678Z,0.83
2022-09-16T17:52:37.733Z,1.00
2022-09-16T17:55:07.492Z,1.00
2022-09-16T17:57:36.781Z,1.00
2022-09-16T18:00:08.438Z,1.07
2022-09-16T18:02:43.590Z,0.73
2022-09-16T18:05:12.365Z,0.53
2022-09-16T18:07:41.665Z,0.80
2022-09-16T18:10:11.261Z,0.83
2022-09-16T18:12:40.078Z,0.90
2022-09-16T18:15:11.561Z,1.00
2022-09-16T18:17:40.530Z,0.83
2022-09-16T18:20:11.183Z,0.77
2022-09-16T18:22:39.893Z,0.73
2022-09-16T18:25:10.406Z,0.80
2022-09-16T18:27:43.977Z,0.97
2022-09-16T18:30:16.814Z,1.20
2022-09-16T18:32:47.103Z,0.77
2022-09-16T18:35:16.434Z,0.87
2022-09-16T18:37:45.306Z,16.07
2022-09-16T18:40:16.639Z,5.70
2022-09-16T18:42:46.067Z,4.10
2022-09-16T18:45:17.325Z,1.30
2022-09-16T18:47:46.446Z,1.33
2022-09-16T18:50:17.859Z,4.47
2022-09-16T18:52:48.681Z,1.67
2022-09-16T18:55:18.074Z,1.63
2022-09-16T18:57:47.383Z,1.47
2022-09-16T19:00:18.552Z,1.33
2022-09-16T19:02:47.629Z,1.30
2022-09-16T19:05:16.960Z,1.40
2022-09-16T19:07:47.232Z,1.30
2022-09-16T19:10:24.453Z,1.70
2022-09-16T19:12:54.599Z,1.37
2022-09-16T19:15:27.329Z,1.33
2022-09-16T19:17:57.574Z,1.57
2022-09-16T19:20:27.135Z,1.60
2022-09-16T19:22:57.001Z,1.20
2022-09-16T19:25:26.360Z,1.40
2022-09-16T19:27:55.502Z,2.10
2022-09-16T19:30:27.429Z,1.63
2022-09-16T19:32:56.904Z,1.70
2022-09-16T19:35:28.791Z,1.40
2022-09-16T19:37:57.778Z,1.40
2022-09-16T19:40:26.629Z,1.60
2022-09-16T19:42:55.856Z,2.10
2022-09-16T19:45:27.986Z,9.93
2022-09-16T19:47:57.842Z,5.63
2022-09-16T19:50:26.469Z,20.70
2022-09-16T19:52:55.799Z,15.40
2022-09-16T19:55:24.878Z,4.73
2022-09-16T19:57:54.249Z,7.53
2022-09-16T20:00:32.777Z,3.13
2022-09-16T20:03:13.569Z,2.20
2022-09-16T20:05:43.089Z,3.93
2022-09-16T20:08:12.588Z,4.27
2022-09-16T20:10:42.449Z,2.93
2022-09-16T20:13:12.663Z,2.77
2022-09-16T20:15:41.133Z,2.83
2022-09-16T20:18:10.306Z,2.77
2022-09-16T20:20:40.383Z,2.67
2022-09-16T20:23:09.322Z,3.20
2022-09-16T20:25:39.422Z,3.50
2022-09-16T20:28:08.642Z,2.83
2022-09-16T20:30:38.186Z,2.97
2022-09-16T20:33:07.752Z,3.20
2022-09-16T20:35:36.933Z,3.20
2022-09-16T20:38:07.459Z,3.40
2022-09-16T20:40:36.645Z,3.80
2022-09-16T20:43:05.747Z,3.70
2022-09-16T20:45:37.727Z,3.80
2022-09-16T20:48:07.705Z,4.60
2022-09-16T20:50:39.598Z,4.03
2022-09-16T20:53:12.635Z,3.77
2022-09-16T20:55:41.470Z,3.40
2022-09-16T20:58:10.177Z,3.43
2022-09-16T21:00:39.118Z,4.00
2022-09-16T21:03:12.270Z,3.60
2022-09-16T21:05:41.717Z,4.10
2022-09-16T21:08:12.580Z,4.00
2022-09-16T21:10:41.782Z,4.13
2022-09-16T21:13:10.885Z,3.63
2022-09-16T21:15:40.525Z,3.97
2022-09-16T21:18:09.839Z,4.73
2022-09-16T21:20:38.499Z,3.90
2022-09-16T21:23:08.042Z,3.73
2022-09-16T21:25:38.364Z,4.33
2022-09-16T21:28:08.995Z,3.90
2022-09-16T21:30:37.824Z,3.50
2022-09-16T21:33:06.638Z,3.57
2022-09-16T21:35:35.576Z,3.90
2022-09-16T21:38:04.768Z,3.30
2022-09-16T21:40:36.498Z,4.27
2022-09-16T21:43:09.410Z,4.27
2022-09-16T21:45:44.208Z,4.20
2022-09-16T21:48:16.685Z,4.07
2022-09-16T21:50:45.745Z,4.20
2022-09-16T21:53:15.541Z,4.30
2022-09-16T21:55:44.283Z,3.73
2022-09-16T21:58:15.354Z,3.57
2022-09-16T22:00:44.050Z,3.53
2022-09-16T22:03:13.070Z,3.63
2022-09-16T22:05:42.267Z,3.53
2022-09-16T22:08:13.408Z,3.53
2022-09-16T22:10:43.505Z,3.47
2022-09-16T22:13:16.003Z,3.93
2022-09-16T22:15:51.506Z,3.30
2022-09-16T22:18:22.577Z,3.43
2022-09-16T22:20:52.584Z,3.90
2022-09-16T22:23:22.277Z,4.47
2022-09-16T22:25:52.596Z,4.20
2022-09-16T22:28:22.578Z,5.10
2022-09-16T22:30:51.431Z,5.37
2022-09-16T22:33:20.156Z,5.43
2022-09-16T22:35:49.310Z,5.73
2022-09-16T22:38:18.231Z,5.70
2022-09-16T22:40:46.858Z,5.43
2022-09-16T22:43:16.073Z,5.50
2022-09-16T22:45:46.178Z,5.33
2022-09-16T22:48:16.751Z,5.67
2022-09-16T22:50:45.551Z,5.07
2022-09-16T22:53:15.086Z,4.77
2022-09-16T22:55:43.903Z,4.80
2022-09-16T22:58:14.013Z,4.93
2022-09-16T23:00:43.982Z,4.53
2022-09-16T23:03:14.006Z,4.03
2022-09-16T23:05:43.619Z,4.03
2022-09-16T23:08:12.710Z,4.50
2022-09-16T23:10:41.386Z,4.03
2022-09-16T23:13:12.929Z,4.47
2022-09-16T23:15:41.762Z,3.70
2022-09-16T23:18:14.690Z,4.33
2022-09-16T23:20:44.567Z,3.27
2022-09-16T23:23:13.974Z,3.40
2022-09-16T23:25:44.206Z,3.63
2022-09-16T23:28:13.258Z,4.50
2022-09-16T23:30:42.665Z,4.87
2022-09-16T23:33:13.991Z,4.07
2022-09-16T23:35:48.635Z,3.97
2022-09-16T23:38:18.900Z,3.80
2022-09-16T23:40:51.288Z,3.77
2022-09-16T23:43:26.801Z,3.80
2022-09-16T23:45:55.977Z,3.57
2022-09-16T23:48:28.585Z,3.53
2022-09-16T23:50:59.976Z,4.13
2022-09-16T23:53:30.163Z,4.00
2022-09-16T23:56:00.262Z,3.77
2022-09-16T23:58:30.074Z,5.03
